»·PEaware :: N389H KPHX-KTUS

N389H :: KPHX-KTUS

FLIGHT INFORMATION

Flight Status: Arrived
Operator: Privately registered:
United States
More flights under this callsign
Pilot: Honeywell Aerospace (27519)
Aircraft: GATES LEARJET LEARJET 45
(LJ45)
More flights by this aircraft type
Origin: KPHX Phoenix Sky Harbor Intl
United States
Destination: KTUS Tucson Intl
United States
More flights between these airports :: More routes between these airports
Route: STRRM1 STRRM BASER DINGO DINGO5
File this flight plan on PilotEdge
Remarks:
Altitude:
(Current/Filed)
15,000ft
Speed:
(Current/Filed)
250kts
Departed: 06-Sep-23 10:10 AM
Arrived: 06-Sep-23 10:36 AM
Distance/Time
Traveled:
96nm/0:25
Distance/Time
To Go:
Arrived

Flight Plot

Page will automatically refresh every two minutes.

Flight plan parsing failed; only flown route is shown


Map Options




Map Legend


Flown Route
Filed Route
Departure Airport
Arrival Airport
Navaid (VOR, NDB)
Fix

Horizontal Profiles

Position Reports

Time Latitude Longitude Heading Altitude Ground
Speed
06-Sep-23 09:41 33.426730 -112.024290 359 1139ft 0kts
06-Sep-23 09:42 33.426732 -112.024290 359 1139ft 0kts
06-Sep-23 09:43 33.426734 -112.024290 359 1139ft 0kts
06-Sep-23 09:44 33.426736 -112.024290 359 1139ft 0kts
06-Sep-23 09:45 33.426739 -112.024290 359 1139ft 0kts
06-Sep-23 09:46 33.426741 -112.024290 359 1139ft 0kts
06-Sep-23 09:47 33.426743 -112.024290 359 1139ft 0kts
06-Sep-23 09:48 33.426745 -112.024290 359 1139ft 0kts
06-Sep-23 09:49 33.426747 -112.024290 359 1139ft 0kts
06-Sep-23 09:50 33.426749 -112.024290 359 1139ft 0kts
06-Sep-23 09:51 33.426752 -112.024290 359 1139ft 0kts
06-Sep-23 09:52 33.426754 -112.024290 359 1139ft 0kts
06-Sep-23 09:53 33.426756 -112.024290 359 1139ft 0kts
06-Sep-23 09:54 33.426758 -112.024290 359 1139ft 0kts
06-Sep-23 09:55 33.426760 -112.024290 359 1139ft 0kts
06-Sep-23 09:56 33.426762 -112.024290 359 1139ft 0kts
06-Sep-23 09:57 33.426765 -112.024290 359 1139ft 0kts
06-Sep-23 09:57 33.426766 -112.024290 359 1139ft 0kts
06-Sep-23 09:59 33.426769 -112.024290 359 1139ft 0kts
06-Sep-23 10:00 33.426771 -112.024290 359 1139ft 0kts
06-Sep-23 10:01 33.426775 -112.024290 359 1139ft 0kts
06-Sep-23 10:02 33.426778 -112.024290 359 1139ft 0kts
06-Sep-23 10:02 33.426781 -112.024290 359 1139ft 0kts
06-Sep-23 10:03 33.426785 -112.024290 359 1139ft 0kts
06-Sep-23 10:05 33.427727 -112.024563 306 1139ft 9kts
06-Sep-23 10:06 33.427945 -112.026865 324 1139ft 6kts
06-Sep-23 10:06 33.430053 -112.026940 0 1139ft 0kts
06-Sep-23 10:07 33.430056 -112.026940 0 1139ft 0kts
06-Sep-23 10:08 33.431033 -112.026047 88 1139ft 4kts
06-Sep-23 10:10 33.432620 -111.963690 86 3703ft 273kts
06-Sep-23 10:10 33.435704 -111.896225 87 5933ft 218kts
06-Sep-23 10:11 33.411024 -111.838510 148 9326ft 211kts
06-Sep-23 10:12 33.357666 -111.807606 169 12385ft 219kts
06-Sep-23 10:13 33.295969 -111.794448 169 14980ft 242kts
06-Sep-23 10:14 33.222553 -111.778341 169 15005ft 291kts
06-Sep-23 10:15 33.140696 -111.760351 169 15000ft 303kts
06-Sep-23 10:16 33.057319 -111.742052 169 15000ft 306kts
06-Sep-23 10:17 32.973460 -111.723721 169 15000ft 306kts
06-Sep-23 10:18 32.889697 -111.705414 169 15000ft 306kts
06-Sep-23 10:19 32.805655 -111.687104 169 15000ft 306kts
06-Sep-23 10:20 32.721857 -111.668873 169 15000ft 306kts
06-Sep-23 10:21 32.637568 -111.650583 169 14151ft 306kts
06-Sep-23 10:22 32.555544 -111.628324 151 13147ft 301kts
06-Sep-23 10:23 32.501813 -111.554146 126 12155ft 297kts
06-Sep-23 10:24 32.452818 -111.476340 126 11154ft 292kts
06-Sep-23 10:25 32.410588 -111.396312 97 10149ft 288kts
06-Sep-23 10:26 32.426646 -111.309880 107 8520ft 270kts
06-Sep-23 10:27 32.377982 -111.247686 135 7371ft 252kts
06-Sep-23 10:28 32.330356 -111.191519 134 6474ft 217kts
06-Sep-23 10:29 32.289848 -111.143672 135 5871ft 198kts
06-Sep-23 10:30 32.252929 -111.100132 135 5553ft 178kts
06-Sep-23 10:31 32.218342 -111.059412 135 5194ft 173kts
06-Sep-23 10:32 32.184052 -111.019066 135 4298ft 172kts
06-Sep-23 10:33 32.150522 -110.979649 134 3381ft 162kts
06-Sep-23 10:34 32.121932 -110.946034 135 2647ft 129kts
06-Sep-23 10:35 32.114386 -110.936984 67 2647ft 2kts

Navigation Log

Ident Type
Flight plan parsing failed, navigation log unavailable